Observations for Trim Market St
| Time | AQI | Temp °C | Hum % | Pres Pa | CO μg/m³ | H₂S μg/m³ | NO μg/m³ | NO₂ μg/m³ | O₃ μg/m³ | SO₂ μg/m³ | PM1 μg/m³ | PM2.5 μg/m³ | PM10 μg/m³ |
|---|---|---|---|---|---|---|---|---|---|---|---|---|---|
| Saturday 15 August 2026 | |||||||||||||
| 13:12 | 2 | 28.4 | 33 | 65,918 | 0 | 0 | 1.36 | 11.9 | 66.49 | 0 | 0 | 2.65 | 2.92 |
| 13:10 | 2 | 28.4 | 33 | 65,931 | 0 | 0 | 1.5 | 17.28 | 56.91 | 0 | 0 | 3.18 | 3.5 |
| 13:08 | 2 | 28.4 | 33 | 65,953 | 0.92 | 0 | 1.39 | 19.74 | 57.39 | 0 | 1.43 | 4.27 | 4.7 |
| 13:07 | 2 | 28.5 | 33 | 65,970 | 0 | 0 | 0.96 | 14.65 | 67.99 | 0 | 2.14 | 5.88 | 6.68 |
| 13:02 | 2 | 28.6 | 33 | 65,925 | 0 | 0 | 1.13 | 13.16 | 70.1 | 0 | 0.71 | 3.19 | 3.51 |
| 13:01 | 2 | 28.6 | 33 | 65,931 | 0 | 0 | 1.25 | 16.7 | 69.15 | 0 | 0.71 | 4.81 | 5.29 |
| 12:59 | 2 | 28.6 | 33 | 65,947 | 0 | 0 | 1.44 | 17.52 | 83.25 | 0 | 0 | 3.19 | 3.51 |
| 12:56 | 2 | 28.7 | 33 | 65,947 | 0 | 0 | 1.4 | 19.87 | 60.5 | 0 | 1.43 | 4.78 | 5.26 |
| 12:54 | 2 | 28.6 | 34 | 65,904 | 0 | 0 | 1.07 | 13.33 | 86.9 | 0 | 0.71 | 4.22 | 4.64 |
| 12:48 | 2 | 28.2 | 34 | 65,870 | 0 | 0 | 0.99 | 14.5 | 80.69 | 0 | 0.71 | 3.7 | 4.07 |
| 12:47 | 2 | 28.2 | 33 | 65,862 | 0 | 0 | 1.01 | 12.52 | 69.01 | 0 | 0.71 | 4.24 | 4.66 |
| 12:46 | 2 | 28.2 | 33 | 65,855 | 0 | 0 | 1.05 | 15.25 | 73.58 | 0 | 0 | 3.71 | 4.08 |
| 12:45 | 2 | 28.3 | 33 | 65,870 | 0 | 0 | 1.06 | 19.39 | 69.21 | 0 | 0.71 | 4.25 | 4.67 |
| 12:44 | 2 | 28.3 | 33 | 65,894 | 0 | 0 | 1.07 | 16.11 | 76.81 | 0 | 0.71 | 3.72 | 4.09 |
| 12:43 | 2 | 28.4 | 33 | 65,894 | 0 | 0 | 1.11 | 14 | 70.73 | 0 | 0.71 | 3.72 | 4.1 |
| 12:42 | 2 | 28.5 | 33 | 65,896 | 0 | 0 | 1.21 | 17.09 | 73.28 | 0 | 1.43 | 4.81 | 5.29 |
| 12:41 | 2 | 28.5 | 33 | 65,896 | 0 | 0 | 1.26 | 14.56 | 95.82 | 0 | 1.43 | 4.28 | 4.71 |
| 12:40 | 2 | 28.6 | 33 | 65,898 | 0 | 0 | 1.09 | 12.64 | 68.1 | 0 | 0.71 | 3.74 | 4.11 |
| 12:39 | 2 | 28.6 | 32 | 65,896 | 0 | 0 | 0.91 | 13.32 | 48.75 | 0 | 0 | 3.2 | 3.52 |
| 12:38 | 2 | 28.7 | 32 | 65,894 | 0 | 0 | 0.83 | 16.55 | 75.03 | 0 | 0 | 3.74 | 4.12 |